sensor_id;sensor_type;location;lat;lon;timestamp;P1;durP1;ratioP1;P2;durP2;ratioP2
38083;SDS011;23894;51.466;7.444;2023-03-01T00:00:59;16.27;;;11.18;;
38083;SDS011;23894;51.466;7.444;2023-03-01T00:03:07;14.95;;;11.40;;
38083;SDS011;23894;51.466;7.444;2023-03-01T00:05:07;15.07;;;11.40;;
38083;SDS011;23894;51.466;7.444;2023-03-01T00:07:09;16.30;;;11.75;;
38083;SDS011;23894;51.466;7.444;2023-03-01T00:09:14;15.40;;;11.43;;
38083;SDS011;23894;51.466;7.444;2023-03-01T00:11:22;13.02;;;11.45;;
38083;SDS011;23894;51.466;7.444;2023-03-01T00:13:31;15.70;;;11.30;;
38083;SDS011;23894;51.466;7.444;2023-03-01T00:15:40;16.45;;;11.65;;
38083;SDS011;23894;51.466;7.444;2023-03-01T00:17:45;18.95;;;12.05;;
38083;SDS011;23894;51.466;7.444;2023-03-01T00:19:46;14.63;;;11.02;;
38083;SDS011;23894;51.466;7.444;2023-03-01T00:21:47;15.90;;;11.77;;
38083;SDS011;23894;51.466;7.444;2023-03-01T00:25:50;16.58;;;12.18;;
38083;SDS011;23894;51.466;7.444;2023-03-01T00:27:52;16.35;;;11.75;;
38083;SDS011;23894;51.466;7.444;2023-03-01T00:29:54;16.58;;;13.40;;
38083;SDS011;23894;51.466;7.444;2023-03-01T00:31:57;17.50;;;12.77;;
38083;SDS011;23894;51.466;7.444;2023-03-01T00:34:01;16.63;;;11.98;;
38083;SDS011;23894;51.466;7.444;2023-03-01T00:36:05;16.33;;;12.25;;
38083;SDS011;23894;51.466;7.444;2023-03-01T00:38:11;15.48;;;11.82;;
38083;SDS011;23894;51.466;7.444;2023-03-01T00:40:13;16.95;;;12.85;;
38083;SDS011;23894;51.466;7.444;2023-03-01T00:42:17;14.45;;;11.40;;
38083;SDS011;23894;51.466;7.444;2023-03-01T00:44:20;17.73;;;11.57;;
38083;SDS011;23894;51.466;7.444;2023-03-01T00:46:24;15.48;;;11.73;;
38083;SDS011;23894;51.466;7.444;2023-03-01T00:48:25;16.40;;;11.45;;
38083;SDS011;23894;51.466;7.444;2023-03-01T00:50:29;18.33;;;11.48;;
38083;SDS011;23894;51.466;7.444;2023-03-01T00:52:31;15.88;;;11.32;;
38083;SDS011;23894;51.466;7.444;2023-03-01T00:54:33;14.20;;;10.75;;
38083;SDS011;23894;51.466;7.444;2023-03-01T00:56:35;15.43;;;10.45;;
38083;SDS011;23894;51.466;7.444;2023-03-01T00:58:38;15.65;;;11.10;;
38083;SDS011;23894;51.466;7.444;2023-03-01T01:00:41;15.82;;;11.90;;
38083;SDS011;23894;51.466;7.444;2023-03-01T01:02:42;15.63;;;10.80;;
38083;SDS011;23894;51.466;7.444;2023-03-01T01:04:46;14.68;;;11.32;;
38083;SDS011;23894;51.466;7.444;2023-03-01T01:06:49;14.45;;;10.45;;
38083;SDS011;23894;51.466;7.444;2023-03-01T01:08:51;16.60;;;11.88;;
38083;SDS011;23894;51.466;7.444;2023-03-01T01:10:56;18.67;;;12.00;;
38083;SDS011;23894;51.466;7.444;2023-03-01T01:12:58;15.73;;;11.52;;
38083;SDS011;23894;51.466;7.444;2023-03-01T01:14:58;15.57;;;12.35;;
38083;SDS011;23894;51.466;7.444;2023-03-01T01:17:01;16.58;;;11.60;;
38083;SDS011;23894;51.466;7.444;2023-03-01T01:19:03;14.13;;;11.18;;
38083;SDS011;23894;51.466;7.444;2023-03-01T01:21:06;16.85;;;12.07;;
38083;SDS011;23894;51.466;7.444;2023-03-01T01:23:08;15.52;;;11.02;;
38083;SDS011;23894;51.466;7.444;2023-03-01T01:25:10;15.80;;;11.65;;
38083;SDS011;23894;51.466;7.444;2023-03-01T01:27:13;15.85;;;10.90;;
38083;SDS011;23894;51.466;7.444;2023-03-01T01:29:15;16.08;;;11.25;;
38083;SDS011;23894;51.466;7.444;2023-03-01T01:31:18;14.05;;;10.82;;
38083;SDS011;23894;51.466;7.444;2023-03-01T01:33:21;14.07;;;11.25;;
38083;SDS011;23894;51.466;7.444;2023-03-01T01:35:23;17.00;;;11.60;;
38083;SDS011;23894;51.466;7.444;2023-03-01T01:37:25;16.58;;;11.95;;
38083;SDS011;23894;51.466;7.444;2023-03-01T01:39:32;16.80;;;12.73;;
38083;SDS011;23894;51.466;7.444;2023-03-01T01:41:33;14.77;;;11.57;;
38083;SDS011;23894;51.466;7.444;2023-03-01T01:43:49;14.73;;;10.77;;
38083;SDS011;23894;51.466;7.444;2023-03-01T01:46:30;14.85;;;11.88;;
38083;SDS011;23894;51.466;7.444;2023-03-01T01:48:48;16.75;;;12.38;;
38083;SDS011;23894;51.466;7.444;2023-03-01T01:50:58;14.85;;;11.15;;
38083;SDS011;23894;51.466;7.444;2023-03-01T01:53:01;13.00;;;10.73;;
38083;SDS011;23894;51.466;7.444;2023-03-01T01:55:18;17.75;;;11.10;;
38083;SDS011;23894;51.466;7.444;2023-03-01T01:57:31;20.17;;;12.18;;
38083;SDS011;23894;51.466;7.444;2023-03-01T01:59:39;17.58;;;13.25;;
38083;SDS011;23894;51.466;7.444;2023-03-01T02:01:48;17.30;;;12.32;;
38083;SDS011;23894;51.466;7.444;2023-03-01T02:03:49;17.45;;;12.43;;
38083;SDS011;23894;51.466;7.444;2023-03-01T02:06:01;16.98;;;12.32;;
38083;SDS011;23894;51.466;7.444;2023-03-01T02:08:13;15.88;;;11.98;;
38083;SDS011;23894;51.466;7.444;2023-03-01T02:10:18;15.13;;;11.93;;
38083;SDS011;23894;51.466;7.444;2023-03-01T02:12:24;16.08;;;12.00;;
38083;SDS011;23894;51.466;7.444;2023-03-01T02:14:28;16.95;;;13.43;;
38083;SDS011;23894;51.466;7.444;2023-03-01T02:16:30;18.85;;;12.80;;
38083;SDS011;23894;51.466;7.444;2023-03-01T02:18:33;16.00;;;12.15;;
38083;SDS011;23894;51.466;7.444;2023-03-01T02:20:55;14.75;;;12.00;;
38083;SDS011;23894;51.466;7.444;2023-03-01T02:23:11;17.63;;;13.07;;
38083;SDS011;23894;51.466;7.444;2023-03-01T02:30:32;16.58;;;11.98;;
38083;SDS011;23894;51.466;7.444;2023-03-01T02:32:34;18.55;;;12.77;;
38083;SDS011;23894;51.466;7.444;2023-03-01T02:34:35;15.27;;;11.98;;
38083;SDS011;23894;51.466;7.444;2023-03-01T02:36:41;18.42;;;13.13;;
38083;SDS011;23894;51.466;7.444;2023-03-01T02:39:07;17.08;;;12.10;;
38083;SDS011;23894;51.466;7.444;2023-03-01T02:41:15;17.00;;;12.57;;
38083;SDS011;23894;51.466;7.444;2023-03-01T02:43:19;15.30;;;12.63;;
38083;SDS011;23894;51.466;7.444;2023-03-01T02:45:26;15.90;;;11.82;;
38083;SDS011;23894;51.466;7.444;2023-03-01T02:47:28;16.80;;;12.45;;
38083;SDS011;23894;51.466;7.444;2023-03-01T02:49:29;15.05;;;11.82;;
38083;SDS011;23894;51.466;7.444;2023-03-01T02:56:48;16.38;;;12.73;;
38083;SDS011;23894;51.466;7.444;2023-03-01T02:58:50;18.23;;;13.35;;
38083;SDS011;23894;51.466;7.444;2023-03-01T03:01:03;16.98;;;11.88;;
38083;SDS011;23894;51.466;7.444;2023-03-01T03:03:05;16.58;;;12.18;;
38083;SDS011;23894;51.466;7.444;2023-03-01T03:05:17;16.42;;;12.15;;
38083;SDS011;23894;51.466;7.444;2023-03-01T03:07:20;15.68;;;11.68;;
38083;SDS011;23894;51.466;7.444;2023-03-01T03:09:22;14.68;;;11.73;;
38083;SDS011;23894;51.466;7.444;2023-03-01T03:11:26;20.73;;;18.83;;
38083;SDS011;23894;51.466;7.444;2023-03-01T03:13:28;16.23;;;12.25;;
38083;SDS011;23894;51.466;7.444;2023-03-01T03:15:30;21.73;;;12.73;;
38083;SDS011;23894;51.466;7.444;2023-03-01T03:17:32;17.40;;;12.23;;
38083;SDS011;23894;51.466;7.444;2023-03-01T03:19:32;14.90;;;11.75;;
38083;SDS011;23894;51.466;7.444;2023-03-01T03:21:34;14.98;;;11.75;;
38083;SDS011;23894;51.466;7.444;2023-03-01T03:23:37;14.25;;;11.38;;
38083;SDS011;23894;51.466;7.444;2023-03-01T03:25:41;15.30;;;11.63;;
38083;SDS011;23894;51.466;7.444;2023-03-01T03:27:44;16.77;;;12.20;;
38083;SDS011;23894;51.466;7.444;2023-03-01T03:29:47;16.63;;;11.75;;
38083;SDS011;23894;51.466;7.444;2023-03-01T03:31:48;17.95;;;12.48;;
38083;SDS011;23894;51.466;7.444;2023-03-01T03:33:51;14.00;;;11.65;;
38083;SDS011;23894;51.466;7.444;2023-03-01T03:35:54;14.23;;;11.65;;
38083;SDS011;23894;51.466;7.444;2023-03-01T03:37:58;14.20;;;11.38;;
38083;SDS011;23894;51.466;7.444;2023-03-01T03:40:10;14.07;;;11.45;;
38083;SDS011;23894;51.466;7.444;2023-03-01T03:42:16;15.88;;;11.05;;
38083;SDS011;23894;51.466;7.444;2023-03-01T03:44:19;15.45;;;11.27;;
38083;SDS011;23894;51.466;7.444;2023-03-01T03:46:22;14.95;;;11.40;;
38083;SDS011;23894;51.466;7.444;2023-03-01T03:48:23;15.57;;;11.95;;
38083;SDS011;23894;51.466;7.444;2023-03-01T03:50:24;15.48;;;11.57;;
38083;SDS011;23894;51.466;7.444;2023-03-01T03:52:25;16.20;;;12.20;;
38083;SDS011;23894;51.466;7.444;2023-03-01T03:54:28;16.27;;;12.15;;
38083;SDS011;23894;51.466;7.444;2023-03-01T03:56:30;14.20;;;12.05;;
38083;SDS011;23894;51.466;7.444;2023-03-01T03:58:34;16.65;;;12.05;;
38083;SDS011;23894;51.466;7.444;2023-03-01T04:00:55;14.30;;;11.43;;
38083;SDS011;23894;51.466;7.444;2023-03-01T04:02:58;15.80;;;11.45;;
38083;SDS011;23894;51.466;7.444;2023-03-01T04:05:00;16.85;;;11.52;;
38083;SDS011;23894;51.466;7.444;2023-03-01T04:07:01;15.25;;;11.25;;
38083;SDS011;23894;51.466;7.444;2023-03-01T04:09:03;14.57;;;11.90;;
38083;SDS011;23894;51.466;7.444;2023-03-01T04:11:06;18.45;;;11.77;;
38083;SDS011;23894;51.466;7.444;2023-03-01T04:13:26;15.82;;;12.05;;
38083;SDS011;23894;51.466;7.444;2023-03-01T04:15:30;13.57;;;11.43;;
38083;SDS011;23894;51.466;7.444;2023-03-01T04:17:32;15.40;;;12.32;;
38083;SDS011;23894;51.466;7.444;2023-03-01T04:19:35;18.20;;;12.85;;
38083;SDS011;23894;51.466;7.444;2023-03-01T04:21:38;17.60;;;13.25;;
38083;SDS011;23894;51.466;7.444;2023-03-01T04:23:41;16.90;;;13.43;;
38083;SDS011;23894;51.466;7.444;2023-03-01T04:25:47;17.00;;;12.00;;
38083;SDS011;23894;51.466;7.444;2023-03-01T04:27:57;18.02;;;13.25;;
38083;SDS011;23894;51.466;7.444;2023-03-01T04:30:00;17.20;;;12.32;;
38083;SDS011;23894;51.466;7.444;2023-03-01T04:32:02;17.40;;;13.43;;
38083;SDS011;23894;51.466;7.444;2023-03-01T04:34:10;16.27;;;11.85;;
38083;SDS011;23894;51.466;7.444;2023-03-01T04:36:12;18.63;;;13.73;;
38083;SDS011;23894;51.466;7.444;2023-03-01T04:38:15;17.75;;;12.98;;
38083;SDS011;23894;51.466;7.444;2023-03-01T04:40:19;18.75;;;13.40;;
38083;SDS011;23894;51.466;7.444;2023-03-01T04:42:21;16.17;;;12.50;;
38083;SDS011;23894;51.466;7.444;2023-03-01T04:44:21;17.13;;;13.88;;
38083;SDS011;23894;51.466;7.444;2023-03-01T04:46:23;19.48;;;12.93;;
38083;SDS011;23894;51.466;7.444;2023-03-01T04:48:27;19.20;;;13.27;;
38083;SDS011;23894;51.466;7.444;2023-03-01T04:50:27;17.42;;;12.82;;
38083;SDS011;23894;51.466;7.444;2023-03-01T04:52:31;17.33;;;13.02;;
38083;SDS011;23894;51.466;7.444;2023-03-01T04:54:34;16.17;;;12.50;;
38083;SDS011;23894;51.466;7.444;2023-03-01T04:56:39;19.05;;;13.73;;
38083;SDS011;23894;51.466;7.444;2023-03-01T04:58:40;17.50;;;13.57;;
38083;SDS011;23894;51.466;7.444;2023-03-01T05:00:43;18.45;;;14.23;;
38083;SDS011;23894;51.466;7.444;2023-03-01T05:02:53;16.10;;;12.93;;
38083;SDS011;23894;51.466;7.444;2023-03-01T05:05:00;17.42;;;13.23;;
38083;SDS011;23894;51.466;7.444;2023-03-01T05:07:02;18.15;;;12.82;;
38083;SDS011;23894;51.466;7.444;2023-03-01T05:09:04;18.77;;;12.80;;
38083;SDS011;23894;51.466;7.444;2023-03-01T05:11:06;17.55;;;13.45;;
38083;SDS011;23894;51.466;7.444;2023-03-01T05:13:13;19.02;;;13.60;;
38083;SDS011;23894;51.466;7.444;2023-03-01T05:15:22;17.05;;;12.38;;
38083;SDS011;23894;51.466;7.444;2023-03-01T05:17:29;17.73;;;14.00;;
38083;SDS011;23894;51.466;7.444;2023-03-01T05:19:31;19.52;;;13.48;;
38083;SDS011;23894;51.466;7.444;2023-03-01T05:21:34;16.95;;;14.02;;
38083;SDS011;23894;51.466;7.444;2023-03-01T05:23:57;17.98;;;12.88;;
38083;SDS011;23894;51.466;7.444;2023-03-01T05:25:59;18.92;;;13.93;;
38083;SDS011;23894;51.466;7.444;2023-03-01T05:28:04;21.35;;;14.98;;
38083;SDS011;23894;51.466;7.444;2023-03-01T05:30:09;19.58;;;14.63;;
38083;SDS011;23894;51.466;7.444;2023-03-01T05:32:17;19.65;;;14.55;;
38083;SDS011;23894;51.466;7.444;2023-03-01T05:34:25;19.15;;;14.90;;
38083;SDS011;23894;51.466;7.444;2023-03-01T05:36:26;18.10;;;13.38;;
38083;SDS011;23894;51.466;7.444;2023-03-01T05:38:29;17.83;;;13.75;;
38083;SDS011;23894;51.466;7.444;2023-03-01T05:40:32;17.55;;;13.00;;
38083;SDS011;23894;51.466;7.444;2023-03-01T05:42:34;16.50;;;13.07;;
38083;SDS011;23894;51.466;7.444;2023-03-01T05:44:36;17.95;;;12.88;;
38083;SDS011;23894;51.466;7.444;2023-03-01T05:46:39;20.20;;;14.65;;
38083;SDS011;23894;51.466;7.444;2023-03-01T05:48:41;17.40;;;13.30;;
38083;SDS011;23894;51.466;7.444;2023-03-01T05:50:43;16.00;;;13.55;;
38083;SDS011;23894;51.466;7.444;2023-03-01T05:52:57;19.80;;;14.20;;
38083;SDS011;23894;51.466;7.444;2023-03-01T05:54:59;19.15;;;13.48;;
38083;SDS011;23894;51.466;7.444;2023-03-01T05:57:00;17.60;;;13.10;;
38083;SDS011;23894;51.466;7.444;2023-03-01T05:59:03;18.92;;;13.60;;
38083;SDS011;23894;51.466;7.444;2023-03-01T06:01:10;18.02;;;13.27;;
38083;SDS011;23894;51.466;7.444;2023-03-01T06:03:14;22.08;;;14.80;;
38083;SDS011;23894;51.466;7.444;2023-03-01T06:05:18;18.20;;;14.25;;
38083;SDS011;23894;51.466;7.444;2023-03-01T06:07:20;22.05;;;15.20;;
38083;SDS011;23894;51.466;7.444;2023-03-01T06:09:22;18.52;;;14.27;;
38083;SDS011;23894;51.466;7.444;2023-03-01T06:11:27;19.38;;;14.30;;
38083;SDS011;23894;51.466;7.444;2023-03-01T06:13:29;18.48;;;14.00;;
38083;SDS011;23894;51.466;7.444;2023-03-01T06:15:31;18.38;;;13.32;;
38083;SDS011;23894;51.466;7.444;2023-03-01T06:17:36;19.67;;;14.38;;
38083;SDS011;23894;51.466;7.444;2023-03-01T06:19:43;19.30;;;14.73;;
38083;SDS011;23894;51.466;7.444;2023-03-01T06:21:43;22.63;;;13.43;;
38083;SDS011;23894;51.466;7.444;2023-03-01T06:23:46;20.02;;;14.10;;
38083;SDS011;23894;51.466;7.444;2023-03-01T06:25:49;20.20;;;14.23;;
38083;SDS011;23894;51.466;7.444;2023-03-01T06:27:51;23.83;;;14.60;;
38083;SDS011;23894;51.466;7.444;2023-03-01T06:29:53;21.42;;;14.60;;
38083;SDS011;23894;51.466;7.444;2023-03-01T06:31:54;22.75;;;13.90;;
38083;SDS011;23894;51.466;7.444;2023-03-01T06:33:55;18.67;;;13.95;;
38083;SDS011;23894;51.466;7.444;2023-03-01T06:35:57;22.40;;;14.20;;
38083;SDS011;23894;51.466;7.444;2023-03-01T06:38:00;22.50;;;15.02;;
38083;SDS011;23894;51.466;7.444;2023-03-01T06:40:03;21.95;;;15.07;;
38083;SDS011;23894;51.466;7.444;2023-03-01T06:42:08;20.98;;;13.95;;
38083;SDS011;23894;51.466;7.444;2023-03-01T06:44:16;18.67;;;14.80;;
38083;SDS011;23894;51.466;7.444;2023-03-01T06:46:18;18.17;;;13.93;;
38083;SDS011;23894;51.466;7.444;2023-03-01T06:48:20;21.35;;;14.65;;
38083;SDS011;23894;51.466;7.444;2023-03-01T06:50:22;21.45;;;14.73;;
38083;SDS011;23894;51.466;7.444;2023-03-01T06:52:25;21.33;;;15.18;;
38083;SDS011;23894;51.466;7.444;2023-03-01T06:54:26;20.98;;;15.43;;
38083;SDS011;23894;51.466;7.444;2023-03-01T06:56:28;20.50;;;14.93;;
38083;SDS011;23894;51.466;7.444;2023-03-01T06:58:32;21.90;;;15.13;;
38083;SDS011;23894;51.466;7.444;2023-03-01T07:00:32;19.27;;;15.13;;
38083;SDS011;23894;51.466;7.444;2023-03-01T07:02:36;19.20;;;14.85;;
38083;SDS011;23894;51.466;7.444;2023-03-01T07:04:38;19.45;;;15.02;;
38083;SDS011;23894;51.466;7.444;2023-03-01T07:06:40;21.75;;;14.85;;
38083;SDS011;23894;51.466;7.444;2023-03-01T07:08:42;25.33;;;15.25;;
38083;SDS011;23894;51.466;7.444;2023-03-01T07:10:45;19.70;;;14.77;;
38083;SDS011;23894;51.466;7.444;2023-03-01T07:12:46;20.73;;;14.90;;
38083;SDS011;23894;51.466;7.444;2023-03-01T07:14:48;24.27;;;15.60;;
38083;SDS011;23894;51.466;7.444;2023-03-01T07:16:49;22.85;;;15.95;;
38083;SDS011;23894;51.466;7.444;2023-03-01T07:18:51;24.48;;;16.42;;
38083;SDS011;23894;51.466;7.444;2023-03-01T07:20:54;20.52;;;15.93;;
38083;SDS011;23894;51.466;7.444;2023-03-01T07:22:57;23.60;;;17.13;;
38083;SDS011;23894;51.466;7.444;2023-03-01T07:24:58;22.55;;;17.35;;
38083;SDS011;23894;51.466;7.444;2023-03-01T07:27:00;20.27;;;15.77;;
38083;SDS011;23894;51.466;7.444;2023-03-01T07:29:04;27.27;;;17.50;;
38083;SDS011;23894;51.466;7.444;2023-03-01T07:31:05;24.08;;;16.88;;
38083;SDS011;23894;51.466;7.444;2023-03-01T07:33:06;24.15;;;16.88;;
38083;SDS011;23894;51.466;7.444;2023-03-01T07:35:09;26.27;;;17.13;;
38083;SDS011;23894;51.466;7.444;2023-03-01T07:37:12;24.35;;;16.42;;
38083;SDS011;23894;51.466;7.444;2023-03-01T07:39:13;25.20;;;16.50;;
38083;SDS011;23894;51.466;7.444;2023-03-01T07:41:13;25.00;;;17.73;;
38083;SDS011;23894;51.466;7.444;2023-03-01T07:43:15;25.38;;;17.73;;
38083;SDS011;23894;51.466;7.444;2023-03-01T07:45:16;23.13;;;17.13;;
38083;SDS011;23894;51.466;7.444;2023-03-01T07:47:17;22.08;;;17.33;;
38083;SDS011;23894;51.466;7.444;2023-03-01T07:49:20;23.80;;;17.95;;
38083;SDS011;23894;51.466;7.444;2023-03-01T07:51:23;25.98;;;17.50;;
38083;SDS011;23894;51.466;7.444;2023-03-01T07:53:25;22.60;;;17.67;;
38083;SDS011;23894;51.466;7.444;2023-03-01T07:55:30;21.33;;;16.42;;
38083;SDS011;23894;51.466;7.444;2023-03-01T07:57:32;21.55;;;16.63;;
38083;SDS011;23894;51.466;7.444;2023-03-01T07:59:34;23.27;;;17.45;;
38083;SDS011;23894;51.466;7.444;2023-03-01T08:01:36;22.00;;;16.98;;
38083;SDS011;23894;51.466;7.444;2023-03-01T08:03:38;24.50;;;17.77;;
38083;SDS011;23894;51.466;7.444;2023-03-01T08:05:40;24.58;;;17.33;;
38083;SDS011;23894;51.466;7.444;2023-03-01T08:07:42;26.90;;;16.90;;
38083;SDS011;23894;51.466;7.444;2023-03-01T08:09:45;24.25;;;17.98;;
38083;SDS011;23894;51.466;7.444;2023-03-01T08:11:47;21.67;;;15.93;;
38083;SDS011;23894;51.466;7.444;2023-03-01T08:13:49;24.05;;;17.95;;
38083;SDS011;23894;51.466;7.444;2023-03-01T08:15:51;27.02;;;16.65;;
38083;SDS011;23894;51.466;7.444;2023-03-01T08:17:52;20.95;;;14.95;;
38083;SDS011;23894;51.466;7.444;2023-03-01T08:19:53;19.08;;;14.43;;
38083;SDS011;23894;51.466;7.444;2023-03-01T08:21:57;17.35;;;13.38;;
38083;SDS011;23894;51.466;7.444;2023-03-01T08:23:58;19.15;;;14.00;;
38083;SDS011;23894;51.466;7.444;2023-03-01T08:26:11;18.02;;;14.45;;
38083;SDS011;23894;51.466;7.444;2023-03-01T08:28:21;18.02;;;13.45;;
38083;SDS011;23894;51.466;7.444;2023-03-01T08:30:23;18.95;;;13.38;;
38083;SDS011;23894;51.466;7.444;2023-03-01T08:32:25;18.27;;;13.65;;
38083;SDS011;23894;51.466;7.444;2023-03-01T08:34:27;18.50;;;13.75;;
38083;SDS011;23894;51.466;7.444;2023-03-01T08:36:34;18.15;;;13.98;;
38083;SDS011;23894;51.466;7.444;2023-03-01T08:38:38;15.00;;;11.27;;
38083;SDS011;23894;51.466;7.444;2023-03-01T08:40:41;24.52;;;14.00;;
38083;SDS011;23894;51.466;7.444;2023-03-01T08:42:41;20.38;;;13.68;;
38083;SDS011;23894;51.466;7.444;2023-03-01T08:44:47;16.48;;;13.02;;
38083;SDS011;23894;51.466;7.444;2023-03-01T08:46:53;17.45;;;13.15;;
38083;SDS011;23894;51.466;7.444;2023-03-01T08:48:59;17.25;;;13.27;;
38083;SDS011;23894;51.466;7.444;2023-03-01T08:51:13;17.15;;;12.95;;
38083;SDS011;23894;51.466;7.444;2023-03-01T08:53:17;16.30;;;12.32;;
38083;SDS011;23894;51.466;7.444;2023-03-01T08:55:18;17.40;;;12.65;;
38083;SDS011;23894;51.466;7.444;2023-03-01T08:57:24;16.15;;;11.93;;
38083;SDS011;23894;51.466;7.444;2023-03-01T08:59:26;15.35;;;11.95;;
38083;SDS011;23894;51.466;7.444;2023-03-01T09:01:31;17.15;;;12.32;;
38083;SDS011;23894;51.466;7.444;2023-03-01T09:03:33;17.75;;;12.63;;
38083;SDS011;23894;51.466;7.444;2023-03-01T09:05:35;14.68;;;11.57;;
38083;SDS011;23894;51.466;7.444;2023-03-01T09:07:37;17.58;;;12.15;;
38083;SDS011;23894;51.466;7.444;2023-03-01T09:09:40;18.67;;;11.93;;
38083;SDS011;23894;51.466;7.444;2023-03-01T09:11:43;15.43;;;11.45;;
38083;SDS011;23894;51.466;7.444;2023-03-01T09:14:05;15.13;;;11.00;;
38083;SDS011;23894;51.466;7.444;2023-03-01T09:16:07;14.82;;;10.45;;
38083;SDS011;23894;51.466;7.444;2023-03-01T09:18:09;16.92;;;11.00;;
38083;SDS011;23894;51.466;7.444;2023-03-01T09:20:11;14.43;;;11.68;;
38083;SDS011;23894;51.466;7.444;2023-03-01T09:22:13;14.90;;;9.85;;
38083;SDS011;23894;51.466;7.444;2023-03-01T09:24:15;13.63;;;9.68;;
38083;SDS011;23894;51.466;7.444;2023-03-01T09:26:16;15.65;;;10.48;;
38083;SDS011;23894;51.466;7.444;2023-03-01T09:28:25;13.85;;;10.00;;
38083;SDS011;23894;51.466;7.444;2023-03-01T09:30:28;13.95;;;9.85;;
38083;SDS011;23894;51.466;7.444;2023-03-01T09:32:31;13.27;;;10.25;;
38083;SDS011;23894;51.466;7.444;2023-03-01T09:34:33;14.95;;;10.48;;
38083;SDS011;23894;51.466;7.444;2023-03-01T09:36:56;16.88;;;10.18;;
38083;SDS011;23894;51.466;7.444;2023-03-01T09:38:58;14.57;;;11.18;;
38083;SDS011;23894;51.466;7.444;2023-03-01T09:41:00;13.75;;;9.93;;
38083;SDS011;23894;51.466;7.444;2023-03-01T09:43:05;15.30;;;11.10;;
38083;SDS011;23894;51.466;7.444;2023-03-01T09:45:20;14.57;;;9.75;;
38083;SDS011;23894;51.466;7.444;2023-03-01T09:47:33;13.35;;;9.35;;
38083;SDS011;23894;51.466;7.444;2023-03-01T09:50:12;12.20;;;8.57;;
38083;SDS011;23894;51.466;7.444;2023-03-01T09:55:01;13.32;;;9.18;;
38083;SDS011;23894;51.466;7.444;2023-03-01T09:59:20;12.98;;;9.13;;
38083;SDS011;23894;51.466;7.444;2023-03-01T10:03:59;14.43;;;8.80;;
38083;SDS011;23894;51.466;7.444;2023-03-01T10:06:04;11.95;;;7.97;;
38083;SDS011;23894;51.466;7.444;2023-03-01T10:08:24;11.48;;;7.88;;
38083;SDS011;23894;51.466;7.444;2023-03-01T10:10:35;9.88;;;7.00;;
38083;SDS011;23894;51.466;7.444;2023-03-01T10:12:40;13.18;;;8.40;;
38083;SDS011;23894;51.466;7.444;2023-03-01T10:16:55;13.82;;;8.10;;
38083;SDS011;23894;51.466;7.444;2023-03-01T10:19:21;13.18;;;7.90;;
38083;SDS011;23894;51.466;7.444;2023-03-01T10:21:27;12.77;;;8.32;;
38083;SDS011;23894;51.466;7.444;2023-03-01T10:23:31;12.20;;;8.23;;
38083;SDS011;23894;51.466;7.444;2023-03-01T10:27:59;12.90;;;8.85;;
38083;SDS011;23894;51.466;7.444;2023-03-01T10:30:21;14.07;;;9.07;;
38083;SDS011;23894;51.466;7.444;2023-03-01T10:32:33;13.65;;;9.40;;
38083;SDS011;23894;51.466;7.444;2023-03-01T10:34:35;14.32;;;9.48;;
38083;SDS011;23894;51.466;7.444;2023-03-01T10:36:38;13.57;;;8.63;;
38083;SDS011;23894;51.466;7.444;2023-03-01T10:39:00;12.75;;;9.05;;
38083;SDS011;23894;51.466;7.444;2023-03-01T10:41:06;12.55;;;8.55;;
38083;SDS011;23894;51.466;7.444;2023-03-01T10:43:10;13.52;;;8.93;;
38083;SDS011;23894;51.466;7.444;2023-03-01T10:45:31;14.15;;;9.43;;
38083;SDS011;23894;51.466;7.444;2023-03-01T10:47:43;12.03;;;9.07;;
38083;SDS011;23894;51.466;7.444;2023-03-01T10:50:00;13.50;;;9.45;;
38083;SDS011;23894;51.466;7.444;2023-03-01T10:52:17;12.50;;;9.05;;
38083;SDS011;23894;51.466;7.444;2023-03-01T10:54:25;13.02;;;9.27;;
38083;SDS011;23894;51.466;7.444;2023-03-01T10:56:48;13.48;;;9.27;;
38083;SDS011;23894;51.466;7.444;2023-03-01T10:59:05;13.05;;;9.07;;
38083;SDS011;23894;51.466;7.444;2023-03-01T11:01:26;12.93;;;9.02;;
38083;SDS011;23894;51.466;7.444;2023-03-01T11:03:35;15.65;;;8.85;;
38083;SDS011;23894;51.466;7.444;2023-03-01T11:05:44;12.90;;;9.43;;
38083;SDS011;23894;51.466;7.444;2023-03-01T11:07:57;13.05;;;9.30;;
38083;SDS011;23894;51.466;7.444;2023-03-01T11:12:22;12.18;;;8.82;;
38083;SDS011;23894;51.466;7.444;2023-03-01T11:14:33;15.00;;;9.38;;
38083;SDS011;23894;51.466;7.444;2023-03-01T11:16:38;13.45;;;9.88;;
38083;SDS011;23894;51.466;7.444;2023-03-01T11:18:39;14.40;;;9.73;;
38083;SDS011;23894;51.466;7.444;2023-03-01T11:20:43;13.25;;;8.73;;
38083;SDS011;23894;51.466;7.444;2023-03-01T11:23:04;11.02;;;8.65;;
38083;SDS011;23894;51.466;7.444;2023-03-01T11:25:10;12.48;;;9.20;;
38083;SDS011;23894;51.466;7.444;2023-03-01T11:31:28;12.88;;;10.27;;
38083;SDS011;23894;51.466;7.444;2023-03-01T11:38:32;15.57;;;9.73;;
38083;SDS011;23894;51.466;7.444;2023-03-01T11:40:52;14.32;;;9.25;;
38083;SDS011;23894;51.466;7.444;2023-03-01T11:43:06;12.63;;;8.90;;
38083;SDS011;23894;51.466;7.444;2023-03-01T11:45:13;15.60;;;9.05;;
38083;SDS011;23894;51.466;7.444;2023-03-01T11:56:55;11.80;;;9.00;;
38083;SDS011;23894;51.466;7.444;2023-03-01T12:01:26;11.13;;;9.10;;
38083;SDS011;23894;51.466;7.444;2023-03-01T12:05:51;13.77;;;8.82;;
38083;SDS011;23894;51.466;7.444;2023-03-01T12:08:14;13.48;;;8.68;;
38083;SDS011;23894;51.466;7.444;2023-03-01T12:10:40;11.25;;;8.40;;
38083;SDS011;23894;51.466;7.444;2023-03-01T12:23:33;10.38;;;7.80;;
38083;SDS011;23894;51.466;7.444;2023-03-01T12:25:58;12.43;;;7.72;;
38083;SDS011;23894;51.466;7.444;2023-03-01T12:39:38;13.60;;;7.88;;
38083;SDS011;23894;51.466;7.444;2023-03-01T12:46:21;11.52;;;7.43;;
38083;SDS011;23894;51.466;7.444;2023-03-01T12:52:59;12.23;;;7.00;;
38083;SDS011;23894;51.466;7.444;2023-03-01T12:57:08;10.68;;;7.63;;
38083;SDS011;23894;51.466;7.444;2023-03-01T12:59:29;10.77;;;7.60;;
38083;SDS011;23894;51.466;7.444;2023-03-01T13:01:45;10.90;;;7.57;;
38083;SDS011;23894;51.466;7.444;2023-03-01T13:06:35;14.57;;;7.22;;
38083;SDS011;23894;51.466;7.444;2023-03-01T13:09:06;10.75;;;7.45;;
38083;SDS011;23894;51.466;7.444;2023-03-01T13:11:31;10.23;;;7.72;;
38083;SDS011;23894;51.466;7.444;2023-03-01T13:13:35;9.00;;;6.53;;
38083;SDS011;23894;51.466;7.444;2023-03-01T13:15:36;11.85;;;7.07;;
38083;SDS011;23894;51.466;7.444;2023-03-01T13:17:42;11.85;;;7.03;;
38083;SDS011;23894;51.466;7.444;2023-03-01T13:20:11;10.88;;;7.43;;
38083;SDS011;23894;51.466;7.444;2023-03-01T13:22:25;10.88;;;6.95;;
38083;SDS011;23894;51.466;7.444;2023-03-01T13:24:39;11.65;;;6.80;;
38083;SDS011;23894;51.466;7.444;2023-03-01T13:27:08;9.15;;;7.05;;
38083;SDS011;23894;51.466;7.444;2023-03-01T13:29:22;11.45;;;7.68;;
38083;SDS011;23894;51.466;7.444;2023-03-01T13:33:33;9.32;;;6.97;;
38083;SDS011;23894;51.466;7.444;2023-03-01T13:36:11;11.70;;;7.68;;
38083;SDS011;23894;51.466;7.444;2023-03-01T13:40:59;9.30;;;7.00;;
38083;SDS011;23894;51.466;7.444;2023-03-01T13:43:16;9.98;;;6.60;;
38083;SDS011;23894;51.466;7.444;2023-03-01T13:45:36;10.07;;;7.35;;
38083;SDS011;23894;51.466;7.444;2023-03-01T13:47:44;9.80;;;6.72;;
38083;SDS011;23894;51.466;7.444;2023-03-01T13:50:01;9.35;;;6.72;;
38083;SDS011;23894;51.466;7.444;2023-03-01T13:52:04;15.15;;;7.82;;